sensor_id;sensor_type;location;lat;lon;timestamp;P1;durP1;ratioP1;P2;durP2;ratioP2
19733;SDS011;10018;51.230;7.860;2024-03-23T00:53:58;11.50;;;3.77;;
19733;SDS011;10018;51.230;7.860;2024-03-23T00:56:23;10.70;;;4.23;;
19733;SDS011;10018;51.230;7.860;2024-03-23T00:58:49;11.17;;;3.40;;
19733;SDS011;10018;51.230;7.860;2024-03-23T01:01:15;7.97;;;3.70;;
19733;SDS011;10018;51.230;7.860;2024-03-23T01:03:40;10.67;;;4.10;;
19733;SDS011;10018;51.230;7.860;2024-03-23T01:06:06;10.43;;;3.63;;
19733;SDS011;10018;51.230;7.860;2024-03-23T01:08:32;7.97;;;3.40;;
19733;SDS011;10018;51.230;7.860;2024-03-23T01:10:58;8.30;;;3.60;;
19733;SDS011;10018;51.230;7.860;2024-03-23T01:13:24;8.80;;;2.80;;
19733;SDS011;10018;51.230;7.860;2024-03-23T01:15:51;7.00;;;2.90;;
19733;SDS011;10018;51.230;7.860;2024-03-23T01:18:20;6.53;;;2.93;;
19733;SDS011;10018;51.230;7.860;2024-03-23T01:20:46;8.73;;;3.80;;
19733;SDS011;10018;51.230;7.860;2024-03-23T01:23:15;8.53;;;3.90;;
19733;SDS011;10018;51.230;7.860;2024-03-23T01:25:40;9.97;;;3.90;;
19733;SDS011;10018;51.230;7.860;2024-03-23T01:28:06;8.77;;;3.60;;
19733;SDS011;10018;51.230;7.860;2024-03-23T01:30:33;10.77;;;3.77;;
19733;SDS011;10018;51.230;7.860;2024-03-23T01:33:01;12.40;;;4.10;;
19733;SDS011;10018;51.230;7.860;2024-03-23T01:35:30;8.33;;;3.30;;
19733;SDS011;10018;51.230;7.860;2024-03-23T01:37:55;10.47;;;3.60;;
19733;SDS011;10018;51.230;7.860;2024-03-23T01:40:21;9.70;;;3.37;;
19733;SDS011;10018;51.230;7.860;2024-03-23T01:45:42;9.80;;;4.00;;
19733;SDS011;10018;51.230;7.860;2024-03-23T01:48:07;8.13;;;2.87;;
19733;SDS011;10018;51.230;7.860;2024-03-23T01:50:34;9.73;;;3.63;;
19733;SDS011;10018;51.230;7.860;2024-03-23T01:53:00;9.23;;;3.50;;
19733;SDS011;10018;51.230;7.860;2024-03-23T01:55:28;11.17;;;3.73;;
19733;SDS011;10018;51.230;7.860;2024-03-23T01:57:56;12.40;;;3.70;;
19733;SDS011;10018;51.230;7.860;2024-03-23T02:00:22;9.73;;;3.30;;
19733;SDS011;10018;51.230;7.860;2024-03-23T02:02:48;9.10;;;2.90;;
19733;SDS011;10018;51.230;7.860;2024-03-23T02:05:14;6.33;;;2.13;;
19733;SDS011;10018;51.230;7.860;2024-03-23T02:07:40;6.63;;;2.03;;
19733;SDS011;10018;51.230;7.860;2024-03-23T02:10:08;5.30;;;2.00;;
19733;SDS011;10018;51.230;7.860;2024-03-23T02:12:35;4.47;;;1.50;;
19733;SDS011;10018;51.230;7.860;2024-03-23T02:15:01;4.43;;;2.10;;
19733;SDS011;10018;51.230;7.860;2024-03-23T02:17:27;5.57;;;2.00;;
19733;SDS011;10018;51.230;7.860;2024-03-23T02:19:54;6.03;;;1.40;;
19733;SDS011;10018;51.230;7.860;2024-03-23T02:22:22;4.90;;;1.40;;
19733;SDS011;10018;51.230;7.860;2024-03-23T02:24:50;3.03;;;1.00;;
19733;SDS011;10018;51.230;7.860;2024-03-23T02:27:21;3.80;;;1.40;;
19733;SDS011;10018;51.230;7.860;2024-03-23T02:29:46;3.50;;;1.13;;
19733;SDS011;10018;51.230;7.860;2024-03-23T02:32:12;4.57;;;1.20;;
19733;SDS011;10018;51.230;7.860;2024-03-23T02:34:37;5.63;;;1.43;;
19733;SDS011;10018;51.230;7.860;2024-03-23T02:37:09;7.10;;;1.60;;
19733;SDS011;10018;51.230;7.860;2024-03-23T02:39:38;4.07;;;1.70;;
19733;SDS011;10018;51.230;7.860;2024-03-23T02:42:03;4.40;;;1.47;;
19733;SDS011;10018;51.230;7.860;2024-03-23T02:44:29;5.03;;;1.53;;
19733;SDS011;10018;51.230;7.860;2024-03-23T02:46:55;4.77;;;1.20;;
19733;SDS011;10018;51.230;7.860;2024-03-23T02:49:20;6.80;;;1.93;;
19733;SDS011;10018;51.230;7.860;2024-03-23T02:51:46;5.13;;;2.20;;
19733;SDS011;10018;51.230;7.860;2024-03-23T02:54:13;8.43;;;3.30;;
19733;SDS011;10018;51.230;7.860;2024-03-23T02:56:39;9.27;;;3.37;;
19733;SDS011;10018;51.230;7.860;2024-03-23T02:59:04;8.70;;;4.33;;
19733;SDS011;10018;51.230;7.860;2024-03-23T03:01:30;8.47;;;3.70;;
19733;SDS011;10018;51.230;7.860;2024-03-23T03:03:55;7.07;;;2.60;;
19733;SDS011;10018;51.230;7.860;2024-03-23T03:06:24;5.63;;;2.03;;
19733;SDS011;10018;51.230;7.860;2024-03-23T03:08:51;4.20;;;1.90;;
19733;SDS011;10018;51.230;7.860;2024-03-23T03:11:16;5.83;;;2.13;;
19733;SDS011;10018;51.230;7.860;2024-03-23T03:13:42;5.63;;;2.00;;
19733;SDS011;10018;51.230;7.860;2024-03-23T03:16:10;6.00;;;2.00;;
19733;SDS011;10018;51.230;7.860;2024-03-23T03:18:37;6.33;;;2.10;;
19733;SDS011;10018;51.230;7.860;2024-03-23T03:21:03;7.47;;;2.07;;
19733;SDS011;10018;51.230;7.860;2024-03-23T03:23:36;5.53;;;2.00;;
19733;SDS011;10018;51.230;7.860;2024-03-23T03:26:05;4.27;;;1.87;;
19733;SDS011;10018;51.230;7.860;2024-03-23T03:28:33;6.43;;;2.27;;
19733;SDS011;10018;51.230;7.860;2024-03-23T03:30:59;6.23;;;2.00;;
19733;SDS011;10018;51.230;7.860;2024-03-23T03:33:28;6.53;;;2.00;;
19733;SDS011;10018;51.230;7.860;2024-03-23T03:35:54;7.50;;;2.07;;
19733;SDS011;10018;51.230;7.860;2024-03-23T03:38:20;8.63;;;2.43;;
19733;SDS011;10018;51.230;7.860;2024-03-23T03:40:46;4.90;;;2.03;;
19733;SDS011;10018;51.230;7.860;2024-03-23T03:43:12;5.83;;;2.00;;
19733;SDS011;10018;51.230;7.860;2024-03-23T03:45:37;5.83;;;1.97;;
19733;SDS011;10018;51.230;7.860;2024-03-23T03:48:03;5.60;;;1.83;;
19733;SDS011;10018;51.230;7.860;2024-03-23T03:50:29;6.20;;;1.87;;
19733;SDS011;10018;51.230;7.860;2024-03-23T03:52:55;5.70;;;1.87;;
19733;SDS011;10018;51.230;7.860;2024-03-23T03:55:21;6.27;;;1.70;;
19733;SDS011;10018;51.230;7.860;2024-03-23T03:57:46;4.00;;;1.63;;
19733;SDS011;10018;51.230;7.860;2024-03-23T04:00:14;4.07;;;1.73;;
19733;SDS011;10018;51.230;7.860;2024-03-23T04:02:40;10.40;;;2.43;;
19733;SDS011;10018;51.230;7.860;2024-03-23T04:05:06;5.30;;;1.80;;
19733;SDS011;10018;51.230;7.860;2024-03-23T04:07:33;7.13;;;1.93;;
19733;SDS011;10018;51.230;7.860;2024-03-23T04:10:01;9.00;;;2.00;;
19733;SDS011;10018;51.230;7.860;2024-03-23T04:12:30;6.70;;;2.10;;
19733;SDS011;10018;51.230;7.860;2024-03-23T04:14:58;6.37;;;1.83;;
19733;SDS011;10018;51.230;7.860;2024-03-23T04:17:23;9.57;;;1.90;;
19733;SDS011;10018;51.230;7.860;2024-03-23T04:19:50;7.43;;;1.77;;
19733;SDS011;10018;51.230;7.860;2024-03-23T04:22:17;8.50;;;1.80;;
19733;SDS011;10018;51.230;7.860;2024-03-23T04:24:43;7.70;;;1.73;;
19733;SDS011;10018;51.230;7.860;2024-03-23T04:27:08;6.87;;;2.10;;
19733;SDS011;10018;51.230;7.860;2024-03-23T04:29:34;6.63;;;1.97;;
19733;SDS011;10018;51.230;7.860;2024-03-23T04:31:59;6.00;;;1.70;;
19733;SDS011;10018;51.230;7.860;2024-03-23T04:34:27;7.57;;;2.07;;
19733;SDS011;10018;51.230;7.860;2024-03-23T04:36:53;9.00;;;1.70;;
19733;SDS011;10018;51.230;7.860;2024-03-23T04:39:18;7.00;;;2.03;;
19733;SDS011;10018;51.230;7.860;2024-03-23T04:41:44;9.17;;;2.00;;
19733;SDS011;10018;51.230;7.860;2024-03-23T04:44:10;8.23;;;2.23;;
19733;SDS011;10018;51.230;7.860;2024-03-23T04:46:35;7.77;;;1.90;;
19733;SDS011;10018;51.230;7.860;2024-03-23T04:49:01;7.40;;;1.50;;
19733;SDS011;10018;51.230;7.860;2024-03-23T04:51:34;6.67;;;1.57;;
19733;SDS011;10018;51.230;7.860;2024-03-23T04:54:03;7.50;;;1.80;;
19733;SDS011;10018;51.230;7.860;2024-03-23T04:56:30;7.77;;;1.90;;
19733;SDS011;10018;51.230;7.860;2024-03-23T04:58:56;7.30;;;1.90;;
19733;SDS011;10018;51.230;7.860;2024-03-23T05:01:26;8.10;;;1.97;;
19733;SDS011;10018;51.230;7.860;2024-03-23T05:03:52;7.93;;;1.93;;
19733;SDS011;10018;51.230;7.860;2024-03-23T05:06:20;6.27;;;1.60;;
19733;SDS011;10018;51.230;7.860;2024-03-23T05:08:47;8.20;;;1.90;;
19733;SDS011;10018;51.230;7.860;2024-03-23T05:11:13;5.83;;;1.70;;
19733;SDS011;10018;51.230;7.860;2024-03-23T05:13:39;9.30;;;1.93;;
19733;SDS011;10018;51.230;7.860;2024-03-23T05:16:05;8.93;;;1.73;;
19733;SDS011;10018;51.230;7.860;2024-03-23T05:18:33;12.50;;;1.80;;
19733;SDS011;10018;51.230;7.860;2024-03-23T05:20:59;11.73;;;2.20;;
19733;SDS011;10018;51.230;7.860;2024-03-23T05:23:25;10.53;;;1.80;;
19733;SDS011;10018;51.230;7.860;2024-03-23T05:25:51;10.47;;;2.10;;
19733;SDS011;10018;51.230;7.860;2024-03-23T05:28:17;9.10;;;2.30;;
19733;SDS011;10018;51.230;7.860;2024-03-23T05:30:43;7.40;;;2.00;;
19733;SDS011;10018;51.230;7.860;2024-03-23T05:33:08;7.83;;;2.40;;
19733;SDS011;10018;51.230;7.860;2024-03-23T05:35:34;5.23;;;1.80;;
19733;SDS011;10018;51.230;7.860;2024-03-23T05:38:00;9.07;;;2.23;;
19733;SDS011;10018;51.230;7.860;2024-03-23T05:40:26;6.73;;;2.20;;
19733;SDS011;10018;51.230;7.860;2024-03-23T05:42:52;11.20;;;2.47;;
19733;SDS011;10018;51.230;7.860;2024-03-23T05:45:21;7.43;;;2.57;;
19733;SDS011;10018;51.230;7.860;2024-03-23T05:47:49;8.90;;;2.30;;
19733;SDS011;10018;51.230;7.860;2024-03-23T05:50:15;10.47;;;2.77;;
19733;SDS011;10018;51.230;7.860;2024-03-23T05:52:42;8.17;;;2.80;;
19733;SDS011;10018;51.230;7.860;2024-03-23T05:55:08;8.87;;;2.50;;
19733;SDS011;10018;51.230;7.860;2024-03-23T05:57:34;12.40;;;2.50;;
19733;SDS011;10018;51.230;7.860;2024-03-23T05:59:59;8.30;;;2.53;;
19733;SDS011;10018;51.230;7.860;2024-03-23T06:02:25;11.23;;;3.03;;
19733;SDS011;10018;51.230;7.860;2024-03-23T06:04:50;11.67;;;2.93;;
19733;SDS011;10018;51.230;7.860;2024-03-23T06:07:16;13.63;;;2.80;;
19733;SDS011;10018;51.230;7.860;2024-03-23T06:09:42;9.40;;;3.03;;
19733;SDS011;10018;51.230;7.860;2024-03-23T06:12:07;8.93;;;2.83;;
19733;SDS011;10018;51.230;7.860;2024-03-23T06:14:36;9.93;;;2.97;;
19733;SDS011;10018;51.230;7.860;2024-03-23T06:17:02;10.97;;;2.87;;
19733;SDS011;10018;51.230;7.860;2024-03-23T06:19:27;9.83;;;3.20;;
19733;SDS011;10018;51.230;7.860;2024-03-23T06:21:53;13.30;;;3.23;;
19733;SDS011;10018;51.230;7.860;2024-03-23T06:24:20;7.97;;;2.93;;
19733;SDS011;10018;51.230;7.860;2024-03-23T06:26:46;14.77;;;3.40;;
19733;SDS011;10018;51.230;7.860;2024-03-23T06:29:12;12.50;;;3.50;;
19733;SDS011;10018;51.230;7.860;2024-03-23T06:31:37;13.50;;;3.83;;
19733;SDS011;10018;51.230;7.860;2024-03-23T06:34:04;9.70;;;3.07;;
19733;SDS011;10018;51.230;7.860;2024-03-23T06:36:29;10.60;;;3.20;;
19733;SDS011;10018;51.230;7.860;2024-03-23T06:38:55;11.07;;;3.50;;
19733;SDS011;10018;51.230;7.860;2024-03-23T06:41:21;9.50;;;3.17;;
19733;SDS011;10018;51.230;7.860;2024-03-23T06:43:47;12.73;;;3.70;;
19733;SDS011;10018;51.230;7.860;2024-03-23T06:46:15;14.20;;;4.30;;
19733;SDS011;10018;51.230;7.860;2024-03-23T06:48:41;15.03;;;5.77;;
19733;SDS011;10018;51.230;7.860;2024-03-23T06:51:06;18.20;;;6.30;;
19733;SDS011;10018;51.230;7.860;2024-03-23T06:53:32;17.73;;;5.73;;
19733;SDS011;10018;51.230;7.860;2024-03-23T06:55:58;13.17;;;6.03;;
19733;SDS011;10018;51.230;7.860;2024-03-23T06:58:24;16.13;;;5.80;;
19733;SDS011;10018;51.230;7.860;2024-03-23T07:00:50;13.40;;;5.80;;
19733;SDS011;10018;51.230;7.860;2024-03-23T07:03:18;14.87;;;5.97;;
19733;SDS011;10018;51.230;7.860;2024-03-23T07:05:45;11.87;;;5.70;;
19733;SDS011;10018;51.230;7.860;2024-03-23T07:08:11;12.07;;;5.50;;
19733;SDS011;10018;51.230;7.860;2024-03-23T07:10:39;9.37;;;4.80;;
19733;SDS011;10018;51.230;7.860;2024-03-23T07:13:05;11.00;;;4.60;;
19733;SDS011;10018;51.230;7.860;2024-03-23T07:15:30;12.23;;;5.40;;
19733;SDS011;10018;51.230;7.860;2024-03-23T07:17:56;12.67;;;5.30;;
19733;SDS011;10018;51.230;7.860;2024-03-23T07:20:22;9.47;;;4.60;;
19733;SDS011;10018;51.230;7.860;2024-03-23T07:22:47;9.97;;;4.80;;
19733;SDS011;10018;51.230;7.860;2024-03-23T07:25:13;10.47;;;5.07;;
19733;SDS011;10018;51.230;7.860;2024-03-23T07:27:39;10.27;;;4.40;;
19733;SDS011;10018;51.230;7.860;2024-03-23T07:30:05;8.20;;;4.00;;
19733;SDS011;10018;51.230;7.860;2024-03-23T07:32:31;8.77;;;4.13;;
19733;SDS011;10018;51.230;7.860;2024-03-23T07:34:57;8.87;;;3.83;;
19733;SDS011;10018;51.230;7.860;2024-03-23T07:37:22;8.73;;;3.90;;
19733;SDS011;10018;51.230;7.860;2024-03-23T07:39:48;5.40;;;3.47;;
19733;SDS011;10018;51.230;7.860;2024-03-23T07:42:14;7.80;;;4.17;;
19733;SDS011;10018;51.230;7.860;2024-03-23T07:44:39;6.40;;;3.67;;
19733;SDS011;10018;51.230;7.860;2024-03-23T07:47:05;7.60;;;3.63;;
19733;SDS011;10018;51.230;7.860;2024-03-23T07:49:30;9.03;;;4.20;;
19733;SDS011;10018;51.230;7.860;2024-03-23T07:51:56;13.90;;;6.77;;
19733;SDS011;10018;51.230;7.860;2024-03-23T07:54:21;7.60;;;3.93;;
19733;SDS011;10018;51.230;7.860;2024-03-23T07:56:47;9.83;;;4.50;;
19733;SDS011;10018;51.230;7.860;2024-03-23T07:59:13;11.67;;;4.17;;
19733;SDS011;10018;51.230;7.860;2024-03-23T08:01:38;16.53;;;8.53;;
19733;SDS011;10018;51.230;7.860;2024-03-23T08:04:06;9.80;;;4.93;;
19733;SDS011;10018;51.230;7.860;2024-03-23T08:06:32;14.07;;;5.63;;
19733;SDS011;10018;51.230;7.860;2024-03-23T08:08:58;12.60;;;5.47;;
19733;SDS011;10018;51.230;7.860;2024-03-23T08:11:27;11.57;;;5.07;;
19733;SDS011;10018;51.230;7.860;2024-03-23T08:13:54;13.60;;;5.53;;
19733;SDS011;10018;51.230;7.860;2024-03-23T08:16:20;13.67;;;6.30;;
19733;SDS011;10018;51.230;7.860;2024-03-23T08:18:46;14.63;;;5.90;;
19733;SDS011;10018;51.230;7.860;2024-03-23T08:21:11;14.50;;;6.70;;
19733;SDS011;10018;51.230;7.860;2024-03-23T08:23:37;14.77;;;5.47;;
19733;SDS011;10018;51.230;7.860;2024-03-23T08:26:04;15.87;;;5.47;;
19733;SDS011;10018;51.230;7.860;2024-03-23T08:28:31;13.90;;;5.53;;
19733;SDS011;10018;51.230;7.860;2024-03-23T08:30:57;14.20;;;5.27;;
19733;SDS011;10018;51.230;7.860;2024-03-23T08:33:26;15.27;;;5.57;;
19733;SDS011;10018;51.230;7.860;2024-03-23T08:38:23;15.90;;;5.83;;
19733;SDS011;10018;51.230;7.860;2024-03-23T08:43:25;16.80;;;6.30;;
19733;SDS011;10018;51.230;7.860;2024-03-23T08:45:54;21.30;;;7.57;;
19733;SDS011;10018;51.230;7.860;2024-03-23T08:48:28;15.70;;;5.67;;
19733;SDS011;10018;51.230;7.860;2024-03-23T08:51:01;19.60;;;6.00;;
19733;SDS011;10018;51.230;7.860;2024-03-23T08:53:29;18.80;;;5.93;;
19733;SDS011;10018;51.230;7.860;2024-03-23T08:55:56;16.73;;;5.43;;
19733;SDS011;10018;51.230;7.860;2024-03-23T08:58:23;11.43;;;4.77;;
19733;SDS011;10018;51.230;7.860;2024-03-23T09:00:50;16.47;;;5.03;;
19733;SDS011;10018;51.230;7.860;2024-03-23T09:03:17;14.90;;;6.10;;
19733;SDS011;10018;51.230;7.860;2024-03-23T09:05:42;18.13;;;6.00;;
19733;SDS011;10018;51.230;7.860;2024-03-23T09:08:08;15.93;;;5.30;;
19733;SDS011;10018;51.230;7.860;2024-03-23T09:10:39;17.67;;;6.20;;
19733;SDS011;10018;51.230;7.860;2024-03-23T09:13:05;17.73;;;5.53;;
19733;SDS011;10018;51.230;7.860;2024-03-23T09:15:35;17.33;;;5.30;;
19733;SDS011;10018;51.230;7.860;2024-03-23T09:18:06;17.73;;;4.90;;
19733;SDS011;10018;51.230;7.860;2024-03-23T09:20:34;15.47;;;4.70;;
19733;SDS011;10018;51.230;7.860;2024-03-23T09:23:02;18.23;;;5.30;;
19733;SDS011;10018;51.230;7.860;2024-03-23T09:25:28;12.53;;;5.17;;
19733;SDS011;10018;51.230;7.860;2024-03-23T09:27:54;15.43;;;5.53;;
19733;SDS011;10018;51.230;7.860;2024-03-23T09:30:19;15.17;;;5.13;;
19733;SDS011;10018;51.230;7.860;2024-03-23T09:32:45;16.07;;;4.43;;
19733;SDS011;10018;51.230;7.860;2024-03-23T09:35:11;16.07;;;4.97;;
19733;SDS011;10018;51.230;7.860;2024-03-23T09:37:37;10.43;;;4.23;;
19733;SDS011;10018;51.230;7.860;2024-03-23T09:40:05;14.37;;;4.93;;
19733;SDS011;10018;51.230;7.860;2024-03-23T09:42:37;12.17;;;5.13;;
19733;SDS011;10018;51.230;7.860;2024-03-23T09:45:04;12.17;;;4.40;;
19733;SDS011;10018;51.230;7.860;2024-03-23T09:47:32;14.07;;;5.03;;
19733;SDS011;10018;51.230;7.860;2024-03-23T09:49:58;17.03;;;5.70;;
19733;SDS011;10018;51.230;7.860;2024-03-23T09:52:24;13.43;;;4.57;;
19733;SDS011;10018;51.230;7.860;2024-03-23T09:54:50;11.73;;;4.80;;
19733;SDS011;10018;51.230;7.860;2024-03-23T09:57:15;13.57;;;4.50;;
19733;SDS011;10018;51.230;7.860;2024-03-23T09:59:43;14.27;;;4.50;;
19733;SDS011;10018;51.230;7.860;2024-03-23T10:02:09;16.33;;;4.47;;
19733;SDS011;10018;51.230;7.860;2024-03-23T10:04:39;13.83;;;4.07;;
19733;SDS011;10018;51.230;7.860;2024-03-23T10:09:42;2.20;;;0.90;;
19733;SDS011;10018;51.230;7.860;2024-03-23T10:12:11;1.97;;;0.80;;
19733;SDS011;10018;51.230;7.860;2024-03-23T10:14:43;2.00;;;0.90;;
19733;SDS011;10018;51.230;7.860;2024-03-23T10:17:21;1.57;;;0.90;;
19733;SDS011;10018;51.230;7.860;2024-03-23T10:19:51;2.67;;;0.87;;
19733;SDS011;10018;51.230;7.860;2024-03-23T10:22:18;3.87;;;1.10;;
19733;SDS011;10018;51.230;7.860;2024-03-23T10:24:48;3.53;;;1.63;;
19733;SDS011;10018;51.230;7.860;2024-03-23T10:27:20;4.23;;;1.57;;
19733;SDS011;10018;51.230;7.860;2024-03-23T10:29:49;3.60;;;1.50;;
19733;SDS011;10018;51.230;7.860;2024-03-23T10:32:15;5.37;;;3.10;;
19733;SDS011;10018;51.230;7.860;2024-03-23T10:34:42;7.03;;;2.10;;
19733;SDS011;10018;51.230;7.860;2024-03-23T10:37:08;6.37;;;2.90;;
19733;SDS011;10018;51.230;7.860;2024-03-23T10:39:35;8.10;;;4.17;;
19733;SDS011;10018;51.230;7.860;2024-03-23T10:42:03;7.90;;;4.43;;
19733;SDS011;10018;51.230;7.860;2024-03-23T10:44:33;6.37;;;2.20;;
19733;SDS011;10018;51.230;7.860;2024-03-23T10:47:00;7.30;;;2.20;;
19733;SDS011;10018;51.230;7.860;2024-03-23T10:49:33;5.07;;;2.20;;
19733;SDS011;10018;51.230;7.860;2024-03-23T10:52:01;7.43;;;2.43;;
19733;SDS011;10018;51.230;7.860;2024-03-23T10:54:27;5.53;;;2.93;;
19733;SDS011;10018;51.230;7.860;2024-03-23T10:59:45;3.80;;;2.30;;
19733;SDS011;10018;51.230;7.860;2024-03-23T11:02:18;7.87;;;2.90;;
19733;SDS011;10018;51.230;7.860;2024-03-23T11:04:45;7.63;;;3.67;;
19733;SDS011;10018;51.230;7.860;2024-03-23T11:09:54;7.33;;;3.20;;
19733;SDS011;10018;51.230;7.860;2024-03-23T11:14:57;9.80;;;3.80;;
19733;SDS011;10018;51.230;7.860;2024-03-23T11:17:25;12.40;;;3.90;;
19733;SDS011;10018;51.230;7.860;2024-03-23T11:20:04;10.43;;;3.70;;
19733;SDS011;10018;51.230;7.860;2024-03-23T11:25:03;9.63;;;3.40;;
19733;SDS011;10018;51.230;7.860;2024-03-23T11:27:37;7.70;;;2.60;;
19733;SDS011;10018;51.230;7.860;2024-03-23T11:32:48;10.23;;;3.40;;
19733;SDS011;10018;51.230;7.860;2024-03-23T11:35:31;9.80;;;2.90;;
19733;SDS011;10018;51.230;7.860;2024-03-23T11:40:32;7.83;;;3.30;;
19733;SDS011;10018;51.230;7.860;2024-03-23T11:42:59;16.67;;;3.73;;
19733;SDS011;10018;51.230;7.860;2024-03-23T11:45:36;10.07;;;4.00;;
19733;SDS011;10018;51.230;7.860;2024-03-23T11:50:37;13.47;;;4.27;;
19733;SDS011;10018;51.230;7.860;2024-03-23T11:53:21;7.30;;;3.20;;
19733;SDS011;10018;51.230;7.860;2024-03-23T11:58:17;7.70;;;2.70;;
19733;SDS011;10018;51.230;7.860;2024-03-23T12:03:20;5.43;;;2.67;;
19733;SDS011;10018;51.230;7.860;2024-03-23T12:05:47;7.17;;;2.40;;
19733;SDS011;10018;51.230;7.860;2024-03-23T12:11:13;6.10;;;2.23;;
19733;SDS011;10018;51.230;7.860;2024-03-23T12:13:41;6.63;;;1.40;;
19733;SDS011;10018;51.230;7.860;2024-03-23T12:16:16;5.67;;;1.57;;
19733;SDS011;10018;51.230;7.860;2024-03-23T12:18:43;3.97;;;1.43;;
19733;SDS011;10018;51.230;7.860;2024-03-23T12:21:10;6.43;;;1.70;;
19733;SDS011;10018;51.230;7.860;2024-03-23T12:23:35;3.47;;;1.47;;
19733;SDS011;10018;51.230;7.860;2024-03-23T12:26:06;5.40;;;1.23;;
19733;SDS011;10018;51.230;7.860;2024-03-23T12:28:32;3.23;;;1.33;;
19733;SDS011;10018;51.230;7.860;2024-03-23T12:30:58;7.53;;;1.20;;
19733;SDS011;10018;51.230;7.860;2024-03-23T12:33:24;4.37;;;1.10;;
19733;SDS011;10018;51.230;7.860;2024-03-23T12:35:50;7.73;;;1.27;;
19733;SDS011;10018;51.230;7.860;2024-03-23T12:38:16;6.60;;;1.23;;
19733;SDS011;10018;51.230;7.860;2024-03-23T12:40:46;3.90;;;1.40;;
19733;SDS011;10018;51.230;7.860;2024-03-23T12:43:18;4.43;;;1.37;;
19733;SDS011;10018;51.230;7.860;2024-03-23T12:45:47;8.03;;;1.57;;
19733;SDS011;10018;51.230;7.860;2024-03-23T12:48:13;5.77;;;1.50;;
19733;SDS011;10018;51.230;7.860;2024-03-23T12:50:41;6.63;;;1.83;;
19733;SDS011;10018;51.230;7.860;2024-03-23T12:53:07;6.50;;;1.57;;
19733;SDS011;10018;51.230;7.860;2024-03-23T12:55:34;6.37;;;1.97;;
19733;SDS011;10018;51.230;7.860;2024-03-23T12:58:00;6.67;;;1.80;;
19733;SDS011;10018;51.230;7.860;2024-03-23T13:00:26;7.13;;;2.13;;
19733;SDS011;10018;51.230;7.860;2024-03-23T13:02:54;8.27;;;2.30;;
19733;SDS011;10018;51.230;7.860;2024-03-23T13:05:20;6.67;;;2.23;;
19733;SDS011;10018;51.230;7.860;2024-03-23T13:07:45;2.20;;;1.00;;
19733;SDS011;10018;51.230;7.860;2024-03-23T13:10:11;1.60;;;0.80;;
19733;SDS011;10018;51.230;7.860;2024-03-23T13:12:39;1.67;;;0.80;;
19733;SDS011;10018;51.230;7.860;2024-03-23T13:15:06;2.73;;;0.80;;
19733;SDS011;10018;51.230;7.860;2024-03-23T13:17:32;3.07;;;0.90;;
19733;SDS011;10018;51.230;7.860;2024-03-23T13:19:57;1.70;;;0.70;;
19733;SDS011;10018;51.230;7.860;2024-03-23T13:22:23;2.10;;;0.83;;
19733;SDS011;10018;51.230;7.860;2024-03-23T13:24:48;1.97;;;0.70;;
19733;SDS011;10018;51.230;7.860;2024-03-23T13:27:15;2.13;;;0.57;;
19733;SDS011;10018;51.230;7.860;2024-03-23T13:29:40;1.50;;;0.70;;
19733;SDS011;10018;51.230;7.860;2024-03-23T13:32:06;3.77;;;0.80;;
19733;SDS011;10018;51.230;7.860;2024-03-23T13:34:33;4.83;;;0.70;;
19733;SDS011;10018;51.230;7.860;2024-03-23T13:37:00;3.13;;;1.10;;
19733;SDS011;10018;51.230;7.860;2024-03-23T13:39:26;5.43;;;1.07;;
19733;SDS011;10018;51.230;7.860;2024-03-23T13:41:52;5.73;;;1.30;;
19733;SDS011;10018;51.230;7.860;2024-03-23T13:44:19;5.37;;;1.53;;
19733;SDS011;10018;51.230;7.860;2024-03-23T13:46:45;6.73;;;2.40;;
19733;SDS011;10018;51.230;7.860;2024-03-23T13:49:24;4.00;;;1.47;;
19733;SDS011;10018;51.230;7.860;2024-03-23T13:51:54;3.87;;;1.50;;
19733;SDS011;10018;51.230;7.860;2024-03-23T13:54:23;6.20;;;1.77;;
19733;SDS011;10018;51.230;7.860;2024-03-23T13:56:53;11.17;;;3.10;;
19733;SDS011;10018;51.230;7.860;2024-03-23T13:59:22;4.57;;;1.13;;
19733;SDS011;10018;51.230;7.860;2024-03-23T14:01:48;13.50;;;5.20;;
19733;SDS011;10018;51.230;7.860;2024-03-23T14:04:14;3.90;;;1.10;;
19733;SDS011;10018;51.230;7.860;2024-03-23T14:06:41;4.80;;;1.27;;
19733;SDS011;10018;51.230;7.860;2024-03-23T14:09:10;2.90;;;1.07;;
19733;SDS011;10018;51.230;7.860;2024-03-23T14:11:38;4.17;;;1.13;;
19733;SDS011;10018;51.230;7.860;2024-03-23T14:14:05;4.90;;;1.73;;
19733;SDS011;10018;51.230;7.860;2024-03-23T14:16:31;4.17;;;1.60;;
19733;SDS011;10018;51.230;7.860;2024-03-23T14:18:57;5.20;;;2.00;;
19733;SDS011;10018;51.230;7.860;2024-03-23T14:21:23;4.97;;;1.40;;
19733;SDS011;10018;51.230;7.860;2024-03-23T14:23:48;3.17;;;1.00;;
19733;SDS011;10018;51.230;7.860;2024-03-23T14:26:17;5.13;;;1.27;;
19733;SDS011;10018;51.230;7.860;2024-03-23T14:28:45;5.37;;;1.30;;
19733;SDS011;10018;51.230;7.860;2024-03-23T14:31:11;6.73;;;1.50;;
19733;SDS011;10018;51.230;7.860;2024-03-23T14:33:37;5.87;;;1.73;;
19733;SDS011;10018;51.230;7.860;2024-03-23T14:36:03;7.93;;;2.20;;
19733;SDS011;10018;51.230;7.860;2024-03-23T14:38:32;4.20;;;1.77;;
19733;SDS011;10018;51.230;7.860;2024-03-23T14:40:58;4.33;;;1.70;;
19733;SDS011;10018;51.230;7.860;2024-03-23T14:43:25;6.07;;;1.43;;
19733;SDS011;10018;51.230;7.860;2024-03-23T14:48:31;4.20;;;1.10;;
19733;SDS011;10018;51.230;7.860;2024-03-23T14:50:59;3.60;;;1.00;;
19733;SDS011;10018;51.230;7.860;2024-03-23T14:53:26;2.77;;;0.80;;
19733;SDS011;10018;51.230;7.860;2024-03-23T14:55:54;5.17;;;0.87;;
19733;SDS011;10018;51.230;7.860;2024-03-23T14:58:24;2.80;;;0.73;;
19733;SDS011;10018;51.230;7.860;2024-03-23T15:00:50;3.90;;;0.77;;
19733;SDS011;10018;51.230;7.860;2024-03-23T15:03:17;3.97;;;1.00;;
19733;SDS011;10018;51.230;7.860;2024-03-23T15:05:51;3.73;;;0.80;;
19733;SDS011;10018;51.230;7.860;2024-03-23T15:08:20;5.77;;;0.70;;
19733;SDS011;10018;51.230;7.860;2024-03-23T15:10:46;3.87;;;0.90;;
19733;SDS011;10018;51.230;7.860;2024-03-23T15:13:12;4.47;;;1.07;;
19733;SDS011;10018;51.230;7.860;2024-03-23T15:15:38;4.43;;;1.73;;
19733;SDS011;10018;51.230;7.860;2024-03-23T15:18:06;4.73;;;1.03;;
19733;SDS011;10018;51.230;7.860;2024-03-23T15:20:37;4.27;;;1.40;;
19733;SDS011;10018;51.230;7.860;2024-03-23T15:23:05;4.83;;;1.40;;
19733;SDS011;10018;51.230;7.860;2024-03-23T15:25:31;4.37;;;1.10;;
19733;SDS011;10018;51.230;7.860;2024-03-23T15:27:57;4.57;;;1.27;;
19733;SDS011;10018;51.230;7.860;2024-03-23T15:30:26;7.03;;;1.17;;
19733;SDS011;10018;51.230;7.860;2024-03-23T15:32:51;4.47;;;1.00;;
19733;SDS011;10018;51.230;7.860;2024-03-23T15:35:17;5.00;;;1.00;;
19733;SDS011;10018;51.230;7.860;2024-03-23T15:37:44;5.60;;;2.33;;
19733;SDS011;10018;51.230;7.860;2024-03-23T15:40:09;5.83;;;2.63;;
19733;SDS011;10018;51.230;7.860;2024-03-23T15:42:36;4.03;;;1.30;;
19733;SDS011;10018;51.230;7.860;2024-03-23T15:45:02;7.80;;;1.70;;
19733;SDS011;10018;51.230;7.860;2024-03-23T15:47:32;3.20;;;1.43;;
19733;SDS011;10018;51.230;7.860;2024-03-23T15:49:57;5.87;;;1.30;;
19733;SDS011;10018;51.230;7.860;2024-03-23T15:52:23;4.10;;;2.10;;
19733;SDS011;10018;51.230;7.860;2024-03-23T15:54:49;13.67;;;7.30;;
19733;SDS011;10018;51.230;7.860;2024-03-23T15:57:14;7.87;;;3.03;;
19733;SDS011;10018;51.230;7.860;2024-03-23T15:59:40;8.70;;;3.40;;
19733;SDS011;10018;51.230;7.860;2024-03-23T16:02:06;4.40;;;2.10;;
19733;SDS011;10018;51.230;7.860;2024-03-23T16:04:31;4.33;;;1.80;;
19733;SDS011;10018;51.230;7.860;2024-03-23T16:06:57;7.33;;;1.83;;
19733;SDS011;10018;51.230;7.860;2024-03-23T16:09:23;5.37;;;1.80;;
19733;SDS011;10018;51.230;7.860;2024-03-23T16:11:48;6.53;;;2.17;;
19733;SDS011;10018;51.230;7.860;2024-03-23T16:14:14;5.30;;;1.83;;